createdAt,value
2023-05-23T00:00:08.703Z,97655.53
2023-05-23T00:02:35.188Z,97649.91
2023-05-23T00:05:01.603Z,97645.91
2023-05-23T00:07:28.018Z,97646.69
2023-05-23T00:09:54.368Z,97654.22
2023-05-23T00:12:20.651Z,97656.38
2023-05-23T00:14:47.021Z,97655.03
2023-05-23T00:17:13.404Z,97667.63
2023-05-23T00:19:39.780Z,97671.13
2023-05-23T00:22:06.072Z,97672.19
2023-05-23T00:24:32.711Z,97664.41
2023-05-23T00:26:59.065Z,97662.00
2023-05-23T00:29:25.539Z,97665.75
2023-05-23T00:31:53.270Z,97678.63
2023-05-23T00:34:19.823Z,97674.34
2023-05-23T00:36:46.181Z,97679.94
2023-05-23T00:39:12.487Z,97684.53
2023-05-23T00:41:38.848Z,97681.31
2023-05-23T00:44:05.401Z,97690.44
2023-05-23T00:46:31.816Z,97692.56
2023-05-23T00:48:58.139Z,97695.53
2023-05-23T00:51:24.416Z,97701.69
2023-05-23T00:53:50.687Z,97696.59
2023-05-23T00:56:17.093Z,97710.00
2023-05-23T00:58:43.376Z,97704.09
2023-05-23T01:01:09.682Z,97701.69
2023-05-23T01:03:36.277Z,97700.09
2023-05-23T01:06:02.721Z,97711.06
2023-05-23T01:08:29.024Z,97708.63
2023-05-23T01:10:55.357Z,97707.03
2023-05-23T01:13:21.712Z,97710.00
2023-05-23T01:15:48.030Z,97709.44
2023-05-23T01:18:14.506Z,97708.63
2023-05-23T01:20:41.089Z,97707.03
2023-05-23T01:23:07.390Z,97714.28
2023-05-23T01:25:33.674Z,97703.81
2023-05-23T01:27:59.932Z,97707.56
2023-05-23T01:30:26.316Z,97712.13
2023-05-23T01:32:53.017Z,97717.75
2023-05-23T01:35:19.305Z,97708.09
2023-05-23T01:37:46.205Z,97718.25
2023-05-23T01:40:12.463Z,97715.06
2023-05-23T01:42:38.735Z,97713.44
2023-05-23T01:45:05.219Z,97723.63
2023-05-23T01:47:31.622Z,97728.47
2023-05-23T01:49:58.146Z,97722.56
2023-05-23T01:52:24.479Z,97726.28
2023-05-23T01:54:50.850Z,97727.66
2023-05-23T01:57:17.280Z,97731.38
2023-05-23T01:59:43.541Z,97737.00
2023-05-23T02:02:09.906Z,97739.94
2023-05-23T02:04:36.210Z,97742.09
2023-05-23T02:07:02.567Z,97750.41
2023-05-23T02:09:28.858Z,97741.53
2023-05-23T02:11:55.197Z,97757.03
2023-05-23T02:14:22.090Z,97756.25
2023-05-23T02:16:48.453Z,97761.06
2023-05-23T02:19:14.829Z,97760.50
2023-05-23T02:21:41.220Z,97757.84
2023-05-23T02:24:07.481Z,97754.63
2023-05-23T02:26:33.782Z,97755.69
2023-05-23T02:29:00.117Z,97776.31
2023-05-23T02:31:26.701Z,97773.09
2023-05-23T02:33:53.047Z,97783.78
2023-05-23T02:36:19.432Z,97784.09
2023-05-23T02:38:45.786Z,97801.03
2023-05-23T02:41:12.090Z,97804.28
2023-05-23T02:43:38.540Z,97812.09
2023-05-23T02:46:05.193Z,97812.38
2023-05-23T02:48:31.564Z,97818.03
2023-05-23T02:50:57.987Z,97823.94
2023-05-23T02:53:24.402Z,97826.63
2023-05-23T02:55:50.696Z,97817.78
2023-05-23T02:58:17.031Z,97824.22
2023-05-23T03:00:43.376Z,97818.06
2023-05-23T03:03:09.820Z,97821.00
2023-05-23T03:05:36.229Z,97819.69
2023-05-23T03:08:02.756Z,97829.63
2023-05-23T03:10:29.127Z,97818.63
2023-05-23T03:12:55.540Z,97828.03
2023-05-23T03:15:22.065Z,97828.31
2023-05-23T03:17:48.474Z,97829.91
2023-05-23T03:20:14.921Z,97822.41
2023-05-23T03:22:41.481Z,97820.25
2023-05-23T03:25:07.849Z,97819.97
2023-05-23T03:27:34.303Z,97825.06
2023-05-23T03:30:00.717Z,97823.75
2023-05-23T03:32:27.172Z,97825.34
2023-05-23T03:34:55.337Z,97826.97
2023-05-23T03:37:23.422Z,97827.78
2023-05-23T03:39:49.833Z,97828.28
2023-05-23T03:42:16.344Z,97810.59
2023-05-23T03:44:42.749Z,97815.41
2023-05-23T03:47:09.083Z,97826.69
2023-05-23T03:49:35.417Z,97824.81
2023-05-23T03:52:01.847Z,97828.31
2023-05-23T03:54:28.241Z,97825.38
2023-05-23T03:56:54.544Z,97826.16
2023-05-23T03:59:22.014Z,97827.78
2023-05-23T04:01:48.308Z,97827.78
2023-05-23T04:04:14.727Z,97824.81
2023-05-23T04:06:41.119Z,97833.69
2023-05-23T04:09:07.497Z,97839.84
2023-05-23T04:11:33.936Z,97834.19
2023-05-23T04:14:00.379Z,97838.78
2023-05-23T04:16:26.747Z,97831.50
2023-05-23T04:18:53.089Z,97830.72
2023-05-23T04:21:19.408Z,97830.47
2023-05-23T04:23:45.745Z,97835.81
2023-05-23T04:26:12.034Z,97835.81
2023-05-23T04:28:38.355Z,97835.56
2023-05-23T04:31:04.932Z,97838.22
2023-05-23T04:33:31.578Z,97835.56
2023-05-23T04:35:57.888Z,97836.09
2023-05-23T04:38:24.182Z,97836.09
2023-05-23T04:40:50.479Z,97836.91
2023-05-23T04:43:16.768Z,97838.50
2023-05-23T04:45:43.309Z,97842.28
2023-05-23T04:48:10.027Z,97838.50
2023-05-23T04:50:36.363Z,97831.53
2023-05-23T04:53:02.675Z,97839.59
2023-05-23T04:55:29.328Z,97839.59
2023-05-23T04:57:55.672Z,97836.91
2023-05-23T05:00:21.972Z,97831.53
2023-05-23T05:02:48.282Z,97838.50
2023-05-23T05:05:14.636Z,97831.00
2023-05-23T05:07:41.001Z,97839.03
2023-05-23T05:10:07.381Z,97837.16
2023-05-23T05:12:33.801Z,97839.59
2023-05-23T05:15:00.078Z,97845.50
2023-05-23T05:17:26.439Z,97857.56
2023-05-23T05:19:52.775Z,97847.63
2023-05-23T05:22:19.109Z,97838.47
2023-05-23T05:24:45.422Z,97841.72
2023-05-23T05:27:12.598Z,97846.81
2023-05-23T05:29:38.892Z,97842.53
2023-05-23T05:32:05.349Z,97840.91
2023-05-23T05:34:31.684Z,97843.59
2023-05-23T05:36:58.333Z,97844.66
2023-05-23T05:39:24.661Z,97834.19
2023-05-23T05:41:50.977Z,97839.31
2023-05-23T05:44:17.338Z,97843.84
2023-05-23T05:46:43.847Z,97841.16
2023-05-23T05:49:12.284Z,97840.38
2023-05-23T05:51:38.796Z,97840.38
2023-05-23T05:54:05.618Z,97846.53
2023-05-23T05:56:31.985Z,97843.84
2023-05-23T05:58:58.480Z,97841.72
2023-05-23T06:01:24.805Z,97843.34
2023-05-23T06:03:51.372Z,97835.28
2023-05-23T06:06:18.003Z,97836.88
2023-05-23T06:08:44.343Z,97835.00
2023-05-23T06:11:10.663Z,97835.28
2023-05-23T06:13:36.974Z,97840.38
2023-05-23T06:16:03.362Z,97832.31
2023-05-23T06:18:29.780Z,97833.91
2023-05-23T06:20:56.087Z,97839.00
2023-05-23T06:23:22.456Z,97838.75
2023-05-23T06:25:48.998Z,97854.59
2023-05-23T06:28:15.539Z,97842.25
2023-05-23T06:30:42.473Z,97836.88
2023-05-23T06:33:09.273Z,97840.63
2023-05-23T06:35:35.612Z,97844.91
2023-05-23T06:38:01.991Z,97851.09
2023-05-23T06:40:28.361Z,97849.25
2023-05-23T06:42:54.610Z,97856.19
2023-05-23T06:45:21.018Z,97854.59
2023-05-23T06:47:49.809Z,97854.59
2023-05-23T06:50:16.236Z,97864.25
2023-05-23T06:52:42.600Z,97862.38
2023-05-23T06:55:08.985Z,97864.25
2023-05-23T06:57:35.378Z,97859.97
2023-05-23T07:00:01.893Z,97861.56
2023-05-23T07:02:28.414Z,97859.97
2023-05-23T07:04:54.869Z,97860.75
2023-05-23T07:07:21.411Z,97862.66
2023-05-23T07:09:48.054Z,97861.56
2023-05-23T07:12:14.474Z,97859.44
2023-05-23T07:14:40.898Z,97869.06
2023-05-23T07:17:07.384Z,97861.03
2023-05-23T07:19:33.937Z,97861.84
2023-05-23T07:22:00.337Z,97864.53
2023-05-23T07:24:26.676Z,97860.75
2023-05-23T07:26:52.965Z,97853.50
2023-05-23T07:29:19.362Z,97858.88
2023-05-23T07:31:45.814Z,97860.47
2023-05-23T07:34:12.127Z,97864.25
2023-05-23T07:36:38.595Z,97862.66
2023-05-23T07:39:04.982Z,97863.72
2023-05-23T07:41:31.378Z,97856.47
2023-05-23T07:43:57.765Z,97859.16
2023-05-23T07:46:24.164Z,97861.03
2023-05-23T07:48:50.600Z,97862.66
2023-05-23T07:51:17.054Z,97871.75
2023-05-23T07:53:43.441Z,97873.41
2023-05-23T07:56:09.980Z,97875.25
2023-05-23T07:58:36.400Z,97871.75
2023-05-23T08:01:02.842Z,97879.81
2023-05-23T08:03:29.180Z,97870.94
2023-05-23T08:05:55.642Z,97879.81
2023-05-23T08:08:22.352Z,97885.19
2023-05-23T08:10:48.872Z,97881.69
2023-05-23T08:13:15.269Z,97890.56
2023-05-23T08:15:42.809Z,97881.69
2023-05-23T08:18:09.394Z,97887.06
2023-05-23T08:20:35.841Z,97895.13
2023-05-23T08:23:02.411Z,97894.06
2023-05-23T08:25:28.756Z,97885.19
2023-05-23T08:27:55.171Z,97901.31
2023-05-23T08:30:21.566Z,97900.25
2023-05-23T08:32:51.253Z,97907.50
2023-05-23T08:35:17.868Z,97909.63
2023-05-23T08:37:44.308Z,97904.53
2023-05-23T08:40:10.769Z,97905.34
2023-05-23T08:42:37.416Z,97912.59
2023-05-23T08:45:03.889Z,97917.13
2023-05-23T08:47:30.354Z,97916.09
2023-05-23T08:49:56.807Z,97921.19
2023-05-23T08:52:23.317Z,97917.41
2023-05-23T08:54:49.723Z,97930.28
2023-05-23T08:57:15.982Z,97935.66
2023-05-23T08:59:42.399Z,97928.41
2023-05-23T09:02:08.788Z,97928.16
2023-05-23T09:04:35.174Z,97924.91
2023-05-23T09:07:01.618Z,97924.91
2023-05-23T09:09:28.071Z,97929.50
2023-05-23T09:11:54.492Z,97937.28
2023-05-23T09:14:20.815Z,97943.47
2023-05-23T09:16:47.262Z,97948.31
2023-05-23T09:19:13.729Z,97955.81
2023-05-23T09:21:40.313Z,97949.41
2023-05-23T09:24:06.903Z,97951.81
2023-05-23T09:26:33.418Z,97958.81
2023-05-23T09:28:59.830Z,97966.31
2023-05-23T09:31:26.472Z,97966.84
2023-05-23T09:33:53.004Z,97961.47
2023-05-23T09:36:19.495Z,97966.84
2023-05-23T09:38:46.060Z,97968.75
2023-05-23T09:41:12.979Z,97976.28
2023-05-23T09:43:39.324Z,97974.63
2023-05-23T09:46:05.612Z,97974.63
2023-05-23T09:48:31.914Z,97971.41
2023-05-23T09:50:58.221Z,97966.56
2023-05-23T09:53:24.728Z,97964.16
2023-05-23T09:55:51.124Z,97965.75
2023-05-23T09:58:17.629Z,97960.91
2023-05-23T10:00:44.489Z,97958.47
2023-05-23T10:03:11.164Z,97959.28
2023-05-23T10:05:37.695Z,97967.59
2023-05-23T10:08:04.169Z,97972.69
2023-05-23T10:10:30.555Z,97968.66
2023-05-23T10:12:56.881Z,97979.94
2023-05-23T10:15:23.259Z,97974.28
2023-05-23T10:17:49.709Z,97980.19
2023-05-23T10:20:16.411Z,97979.63
2023-05-23T10:22:42.776Z,97982.88
2023-05-23T10:25:09.461Z,97981.75
2023-05-23T10:27:35.865Z,97982.53
2023-05-23T10:30:02.229Z,97983.34
2023-05-23T10:32:28.632Z,97986.53
2023-05-23T10:34:55.178Z,97983.28
2023-05-23T10:37:21.519Z,97989.19
2023-05-23T10:39:47.777Z,97984.59
2023-05-23T10:42:14.083Z,97992.09
2023-05-23T10:44:40.548Z,97996.13
2023-05-23T10:47:06.902Z,97995.03
2023-05-23T10:49:33.408Z,97993.69
2023-05-23T10:51:59.698Z,97995.00
2023-05-23T10:54:26.076Z,98001.97
2023-05-23T10:56:52.414Z,97996.56
2023-05-23T10:59:18.777Z,97993.59
2023-05-23T11:01:45.173Z,97996.00
2023-05-23T11:04:11.672Z,97992.78
2023-05-23T11:06:37.977Z,98000.28
2023-05-23T11:09:06.323Z,97994.63
2023-05-23T11:11:33.842Z,98001.56
2023-05-23T11:14:00.476Z,97995.66
2023-05-23T11:16:27.289Z,98003.97
2023-05-23T11:18:53.978Z,97996.97
2023-05-23T11:21:20.520Z,97996.44
2023-05-23T11:23:46.898Z,98005.81
2023-05-23T11:26:13.303Z,98004.19
2023-05-23T11:28:39.690Z,98002.31
2023-05-23T11:31:06.052Z,98003.94
2023-05-23T11:33:33.857Z,98010.91
2023-05-23T11:36:00.466Z,98012.53
2023-05-23T11:38:26.966Z,98005.81
2023-05-23T11:40:53.423Z,98005.50
2023-05-23T11:43:20.041Z,98011.41
2023-05-23T11:45:46.599Z,98015.13
2023-05-23T11:48:13.188Z,98006.56
2023-05-23T11:50:39.659Z,98020.44
2023-05-23T11:53:06.332Z,98008.41
2023-05-23T11:55:32.706Z,98025.75
2023-05-23T11:57:59.090Z,98021.72
2023-05-23T12:00:25.439Z,98023.59
2023-05-23T12:02:51.826Z,98031.09
2023-05-23T12:05:18.411Z,98022.22
2023-05-23T12:07:44.833Z,98034.88
2023-05-23T12:10:11.229Z,98041.53
2023-05-23T12:12:37.725Z,98050.34
2023-05-23T12:15:04.193Z,98048.72
2023-05-23T12:17:30.866Z,98051.66
2023-05-23T12:19:57.325Z,98053.53
2023-05-23T12:22:23.904Z,98053.78
2023-05-23T12:24:50.359Z,98049.75
2023-05-23T12:27:16.835Z,98053.19
2023-05-23T12:29:43.442Z,98055.31
2023-05-23T12:32:09.828Z,98061.16
2023-05-23T12:34:36.493Z,98059.56
2023-05-23T12:37:17.992Z,98055.50
2023-05-23T12:39:46.493Z,98064.94
2023-05-23T12:42:12.996Z,98075.63
2023-05-23T12:44:39.278Z,98069.97
2023-05-23T12:47:05.651Z,98072.66
2023-05-23T12:49:34.903Z,98067.00
2023-05-23T12:52:01.532Z,98073.91
2023-05-23T12:54:27.948Z,98074.94
2023-05-23T12:56:54.380Z,98077.06
2023-05-23T12:59:20.765Z,98070.06
2023-05-23T13:01:47.324Z,98084.59
2023-05-23T13:04:13.725Z,98087.81
2023-05-23T13:06:40.166Z,98087.56
2023-05-23T13:09:06.783Z,98077.13
2023-05-23T13:11:33.272Z,98085.97
2023-05-23T13:13:59.864Z,98076.00
2023-05-23T13:16:26.219Z,98077.88
2023-05-23T13:18:53.072Z,98090.72
2023-05-23T13:21:19.673Z,98086.13
2023-05-23T13:23:46.982Z,98092.06
2023-05-23T13:26:13.447Z,98086.13
2023-05-23T13:28:39.888Z,98094.69
2023-05-23T13:31:06.298Z,98096.25
2023-05-23T13:33:32.757Z,98095.16
2023-05-23T13:35:59.035Z,98102.63
2023-05-23T13:38:26.858Z,98106.34
2023-05-23T13:40:53.410Z,98101.28
2023-05-23T13:43:19.903Z,98103.53
2023-05-23T13:45:46.328Z,98103.88
2023-05-23T13:48:12.718Z,98100.19
2023-05-23T13:50:39.169Z,98100.25
2023-05-23T13:53:05.556Z,98095.69
2023-05-23T13:55:31.838Z,98101.84
2023-05-23T13:57:58.422Z,98104.03
2023-05-23T14:00:25.254Z,98098.91
2023-05-23T14:02:51.700Z,98099.19
2023-05-23T14:05:18.265Z,98094.63
2023-05-23T14:07:44.589Z,98093.31
2023-05-23T14:10:10.894Z,98094.44
2023-05-23T14:12:37.225Z,98098.47
2023-05-23T14:15:03.525Z,98094.44
2023-05-23T14:17:29.843Z,98102.72
2023-05-23T14:19:56.326Z,98097.88
2023-05-23T14:22:22.682Z,98101.03
2023-05-23T14:24:49.272Z,98104.25
2023-05-23T14:27:15.976Z,98103.69
2023-05-23T14:29:42.343Z,98101.50
2023-05-23T14:32:08.734Z,98104.97
2023-05-23T14:34:35.172Z,98106.31
2023-05-23T14:37:01.561Z,98116.53
2023-05-23T14:39:28.048Z,98120.94
2023-05-23T14:41:54.459Z,98125.91
2023-05-23T14:44:20.851Z,98129.53
2023-05-23T14:46:47.372Z,98126.66
2023-05-23T14:49:13.970Z,98120.56
2023-05-23T14:54:09.793Z,98128.19
2023-05-23T14:56:36.111Z,98128.50
2023-05-23T14:59:02.488Z,98126.09
2023-05-23T15:01:28.840Z,98129.91
2023-05-23T15:03:55.449Z,98131.78
2023-05-23T15:06:21.977Z,98135.03
2023-05-23T15:09:09.322Z,98134.75
2023-05-23T15:11:35.954Z,98133.72
2023-05-23T15:14:02.522Z,98133.72
2023-05-23T15:16:29.028Z,98132.91
2023-05-23T15:18:55.483Z,98133.47
2023-05-23T15:21:21.943Z,98121.06
2023-05-23T15:23:48.379Z,98131.84
2023-05-23T15:26:14.788Z,98133.47
2023-05-23T15:28:41.317Z,98130.53
2023-05-23T15:31:07.675Z,98131.09
2023-05-23T15:33:33.921Z,98128.97
2023-05-23T15:36:00.202Z,98126.56
2023-05-23T15:38:26.734Z,98129.81
2023-05-23T15:40:53.008Z,98125.25
2023-05-23T15:43:19.352Z,98125.53
2023-05-23T15:45:45.914Z,98128.50
2023-05-23T15:48:12.410Z,98127.19
2023-05-23T15:50:38.929Z,98129.88
2023-05-23T15:53:05.469Z,98122.63
2023-05-23T15:55:31.888Z,98128.81
2023-05-23T15:57:58.297Z,98125.06
2023-05-23T16:00:24.683Z,98132.59
2023-05-23T16:02:51.955Z,98131.50
2023-05-23T16:05:18.429Z,98131.50
2023-05-23T16:07:45.038Z,98133.41
2023-05-23T16:10:11.392Z,98132.59
2023-05-23T16:12:37.946Z,98130.16
2023-05-23T16:15:04.257Z,98125.59
2023-05-23T16:17:30.937Z,98133.41
2023-05-23T16:19:57.828Z,98135.81
2023-05-23T16:22:24.430Z,98135.81
2023-05-23T16:24:51.227Z,98136.88
2023-05-23T16:27:17.933Z,98138.50
2023-05-23T16:29:44.389Z,98140.38
2023-05-23T16:32:10.981Z,98137.69
2023-05-23T16:34:37.405Z,98129.91
2023-05-23T16:37:03.787Z,98130.94
2023-05-23T16:39:30.129Z,98128.03
2023-05-23T16:41:57.526Z,98128.03
2023-05-23T16:44:26.041Z,98129.91
2023-05-23T16:46:53.023Z,98134.44
2023-05-23T16:49:19.541Z,98130.94
2023-05-23T16:51:48.421Z,98137.41
2023-05-23T16:54:15.163Z,98139.25
2023-05-23T16:56:41.729Z,98135.25
2023-05-23T16:59:08.187Z,98146.75
2023-05-23T17:01:34.545Z,98142.47
2023-05-23T17:04:01.036Z,98140.88
2023-05-23T17:06:27.422Z,98138.97
2023-05-23T17:08:53.724Z,98140.06
2023-05-23T17:11:20.157Z,98138.44
2023-05-23T17:13:46.508Z,98136.56
2023-05-23T17:16:12.929Z,98141.94
2023-05-23T17:18:39.249Z,98141.94
2023-05-23T17:21:05.564Z,98139.50
2023-05-23T17:23:32.085Z,98146.75
2023-05-23T17:25:58.445Z,98145.13
2023-05-23T17:28:24.800Z,98150.75
2023-05-23T17:30:51.127Z,98156.13
2023-05-23T17:33:17.484Z,98158.25
2023-05-23T17:35:44.046Z,98157.44
2023-05-23T17:38:10.588Z,98149.66
2023-05-23T17:40:37.055Z,98154.22
2023-05-23T17:43:03.557Z,98153.38
2023-05-23T17:45:29.906Z,98156.34
2023-05-23T17:47:56.377Z,98156.56
2023-05-23T17:50:22.848Z,98163.84
2023-05-23T17:52:49.239Z,98164.88
2023-05-23T17:55:15.687Z,98168.38
2023-05-23T17:57:42.067Z,98164.09
2023-05-23T18:00:08.378Z,98173.19
2023-05-23T18:02:34.882Z,98171.59
2023-05-23T18:05:01.312Z,98176.13
2023-05-23T18:07:27.635Z,98179.09
2023-05-23T18:09:54.360Z,98174.75
2023-05-23T18:12:20.983Z,98182.28
2023-05-23T18:14:47.350Z,98167.72
2023-05-23T18:17:13.848Z,98180.09
2023-05-23T18:19:40.501Z,98177.41
2023-05-23T18:22:06.969Z,98180.34
2023-05-23T18:24:33.336Z,98177.94
2023-05-23T18:27:00.362Z,98185.44
2023-05-23T18:29:26.850Z,98186.50
2023-05-23T18:31:53.316Z,98188.63
2023-05-23T18:34:19.779Z,98191.56
2023-05-23T18:36:46.139Z,98183.78
2023-05-23T18:39:12.473Z,98186.69
2023-05-23T18:41:38.836Z,98186.69
2023-05-23T18:44:05.151Z,98188.84
2023-05-23T18:46:31.564Z,98198.75
2023-05-23T18:48:57.976Z,98199.84
2023-05-23T18:51:24.322Z,98200.34
2023-05-23T18:53:50.882Z,98204.09
2023-05-23T18:56:17.224Z,98200.84
2023-05-23T18:58:45.399Z,98207.28
2023-05-23T19:01:13.291Z,98202.16
2023-05-23T19:03:39.695Z,98207.78
2023-05-23T19:06:06.132Z,98217.94
2023-05-23T19:08:32.565Z,98221.69
2023-05-23T19:10:59.052Z,98209.38
2023-05-23T19:13:25.521Z,98217.66
2023-05-23T19:15:51.868Z,98219.78
2023-05-23T19:18:18.440Z,98227.84
2023-05-23T19:20:44.779Z,98230.75
2023-05-23T19:23:11.190Z,98235.59
2023-05-23T19:25:37.568Z,98231.25
2023-05-23T19:28:04.116Z,98232.34
2023-05-23T19:30:30.535Z,98239.81
2023-05-23T19:32:56.985Z,98244.34
2023-05-23T19:35:23.464Z,98236.59
2023-05-23T19:37:49.864Z,98244.06
2023-05-23T19:40:16.240Z,98242.44
2023-05-23T19:42:42.584Z,98259.56
2023-05-23T19:45:09.080Z,98246.69
2023-05-23T19:47:35.749Z,98249.63
2023-05-23T19:50:02.166Z,98257.94
2023-05-23T19:52:28.546Z,98261.66
2023-05-23T19:54:54.904Z,98261.13
2023-05-23T19:57:21.306Z,98254.13
2023-05-23T19:59:47.642Z,98262.41
2023-05-23T20:02:14.410Z,98261.84
2023-05-23T20:04:41.172Z,98268.53
2023-05-23T20:07:07.827Z,98269.56
2023-05-23T20:09:34.142Z,98267.13
2023-05-23T20:12:00.498Z,98268.19
2023-05-23T20:14:28.152Z,98273.78
2023-05-23T20:16:55.484Z,98267.06
2023-05-23T20:19:21.806Z,98271.63
2023-05-23T20:21:48.147Z,98279.09
2023-05-23T20:24:14.438Z,98275.88
2023-05-23T20:26:40.795Z,98284.13
2023-05-23T20:29:07.093Z,98281.72
2023-05-23T20:31:33.574Z,98283.59
2023-05-23T20:34:00.030Z,98281.16
2023-05-23T20:36:26.855Z,98286.75
2023-05-23T20:38:54.276Z,98293.44
2023-05-23T20:41:20.632Z,98286.69
2023-05-23T20:43:47.008Z,98286.97
2023-05-23T20:46:13.387Z,98295.00
2023-05-23T20:48:40.492Z,98288.25
2023-05-23T20:51:06.861Z,98296.53
2023-05-23T20:53:34.008Z,98288.50
2023-05-23T20:56:00.398Z,98294.94
2023-05-23T20:58:28.998Z,98293.28
2023-05-23T21:00:55.397Z,98299.16
2023-05-23T21:03:21.773Z,98295.91
2023-05-23T21:05:48.104Z,98295.91
2023-05-23T21:08:14.565Z,98298.03
2023-05-23T21:10:41.497Z,98294.81
2023-05-23T21:13:08.353Z,98296.66
2023-05-23T21:15:34.724Z,98291.56
2023-05-23T21:18:01.146Z,98295.28
2023-05-23T21:20:27.497Z,98308.13
2023-05-23T21:22:53.780Z,98311.03
2023-05-23T21:25:20.144Z,98308.59
2023-05-23T21:27:46.792Z,98313.16
2023-05-23T21:30:13.143Z,98309.94
2023-05-23T21:32:39.566Z,98311.22
2023-05-23T21:35:06.016Z,98309.63
2023-05-23T21:37:32.482Z,98312.28
2023-05-23T21:39:58.889Z,98311.72
2023-05-23T21:42:25.180Z,98312.75
2023-05-23T21:44:51.664Z,98307.66
2023-05-23T21:47:17.972Z,98305.22
2023-05-23T21:49:44.309Z,98308.16
2023-05-23T21:52:10.693Z,98301.59
2023-05-23T21:54:36.969Z,98295.63
2023-05-23T21:57:03.299Z,98300.56
2023-05-23T21:59:29.691Z,98294.31
2023-05-23T22:01:56.016Z,98289.66
2023-05-23T22:04:22.383Z,98290.88
2023-05-23T22:06:48.735Z,98284.69
2023-05-23T22:09:15.032Z,98291.59
2023-05-23T22:11:41.663Z,98278.75
2023-05-23T22:14:08.125Z,98277.38
2023-05-23T22:16:34.537Z,98279.25
2023-05-23T22:19:00.930Z,98270.91
2023-05-23T22:21:27.283Z,98275.66
2023-05-23T22:23:53.590Z,98279.41
2023-05-23T22:26:19.886Z,98275.34
2023-05-23T22:28:46.287Z,98286.78
2023-05-23T22:31:13.211Z,98278.78
2023-05-23T22:33:39.687Z,98284.06
2023-05-23T22:36:06.054Z,98288.53
2023-05-23T22:38:32.355Z,98292.56
2023-05-23T22:40:59.241Z,98282.94
2023-05-23T22:43:25.548Z,98281.69
2023-05-23T22:45:51.945Z,98293.03
2023-05-23T22:48:18.233Z,98299.94
2023-05-23T22:50:44.810Z,98302.31
2023-05-23T22:53:11.177Z,98296.72
2023-05-23T22:55:37.477Z,98303.13
2023-05-23T22:58:03.773Z,98303.63
2023-05-23T23:00:30.061Z,98307.63
2023-05-23T23:02:56.502Z,98303.84
2023-05-23T23:05:22.934Z,98303.75
2023-05-23T23:07:49.566Z,98302.41
2023-05-23T23:10:15.999Z,98298.41
2023-05-23T23:12:42.403Z,98298.66
2023-05-23T23:15:08.749Z,98293.88
2023-05-23T23:17:35.259Z,98300.25
2023-05-23T23:20:01.693Z,98312.78
2023-05-23T23:22:28.046Z,98311.19
2023-05-23T23:24:54.490Z,98319.22
2023-05-23T23:27:20.778Z,98315.78
2023-05-23T23:29:47.060Z,98325.66
2023-05-23T23:32:13.371Z,98319.75
2023-05-23T23:34:39.657Z,98319.81
2023-05-23T23:37:06.180Z,98327.00
2023-05-23T23:39:32.601Z,98324.56
2023-05-23T23:41:58.901Z,98316.25
2023-05-23T23:44:25.259Z,98321.22
2023-05-23T23:46:51.656Z,98314.28
2023-05-23T23:49:18.007Z,98323.31
2023-05-23T23:51:44.337Z,98315.38
2023-05-23T23:54:10.666Z,98315.78
2023-05-23T23:56:37.045Z,98316.22
2023-05-23T23:59:03.332Z,98312.56
